sensor_id;sensor_type;location;lat;lon;timestamp;P1;durP1;ratioP1;P2;durP2;ratioP2
2225;SDS011;1119;48.288;8.726;2022-08-18T00:00:10;7.87;;;7.37;;
2225;SDS011;1119;48.288;8.726;2022-08-18T00:02:39;8.20;;;7.70;;
2225;SDS011;1119;48.288;8.726;2022-08-18T00:05:08;8.00;;;7.40;;
2225;SDS011;1119;48.288;8.726;2022-08-18T00:07:38;7.80;;;7.23;;
2225;SDS011;1119;48.288;8.726;2022-08-18T00:10:05;9.10;;;8.30;;
2225;SDS011;1119;48.288;8.726;2022-08-18T00:12:36;7.70;;;7.20;;
2225;SDS011;1119;48.288;8.726;2022-08-18T00:15:08;8.47;;;7.87;;
2225;SDS011;1119;48.288;8.726;2022-08-18T00:17:39;8.57;;;7.93;;
2225;SDS011;1119;48.288;8.726;2022-08-18T00:20:08;8.40;;;7.90;;
2225;SDS011;1119;48.288;8.726;2022-08-18T00:22:39;7.93;;;7.33;;
2225;SDS011;1119;48.288;8.726;2022-08-18T00:25:08;8.20;;;7.60;;
2225;SDS011;1119;48.288;8.726;2022-08-18T00:27:37;8.27;;;7.77;;
2225;SDS011;1119;48.288;8.726;2022-08-18T00:30:06;8.50;;;8.00;;
2225;SDS011;1119;48.288;8.726;2022-08-18T00:32:39;8.90;;;8.33;;
2225;SDS011;1119;48.288;8.726;2022-08-18T00:35:10;8.00;;;7.40;;
2225;SDS011;1119;48.288;8.726;2022-08-18T00:37:40;8.20;;;7.60;;
2225;SDS011;1119;48.288;8.726;2022-08-18T00:40:09;8.77;;;8.17;;
2225;SDS011;1119;48.288;8.726;2022-08-18T00:42:42;9.53;;;8.77;;
2225;SDS011;1119;48.288;8.726;2022-08-18T00:45:16;9.40;;;8.50;;
2225;SDS011;1119;48.288;8.726;2022-08-18T00:47:48;7.60;;;7.10;;
2225;SDS011;1119;48.288;8.726;2022-08-18T00:50:22;9.10;;;8.50;;
2225;SDS011;1119;48.288;8.726;2022-08-18T00:52:54;7.67;;;7.17;;
2225;SDS011;1119;48.288;8.726;2022-08-18T00:55:26;8.10;;;7.60;;
2225;SDS011;1119;48.288;8.726;2022-08-18T00:57:56;7.60;;;7.17;;
2225;SDS011;1119;48.288;8.726;2022-08-18T01:00:32;8.67;;;7.90;;
2225;SDS011;1119;48.288;8.726;2022-08-18T01:03:01;8.43;;;7.80;;
2225;SDS011;1119;48.288;8.726;2022-08-18T01:05:34;7.80;;;7.30;;
2225;SDS011;1119;48.288;8.726;2022-08-18T01:08:07;7.60;;;7.17;;
2225;SDS011;1119;48.288;8.726;2022-08-18T01:10:39;7.43;;;6.97;;
2225;SDS011;1119;48.288;8.726;2022-08-18T01:13:07;8.20;;;7.70;;
2225;SDS011;1119;48.288;8.726;2022-08-18T01:15:36;7.90;;;7.23;;
2225;SDS011;1119;48.288;8.726;2022-08-18T01:18:05;8.13;;;7.63;;
2225;SDS011;1119;48.288;8.726;2022-08-18T01:20:54;8.13;;;7.63;;
2225;SDS011;1119;48.288;8.726;2022-08-18T01:23:49;9.00;;;7.60;;
2225;SDS011;1119;48.288;8.726;2022-08-18T01:26:19;7.97;;;7.33;;
2225;SDS011;1119;48.288;8.726;2022-08-18T01:28:47;8.70;;;8.10;;
2225;SDS011;1119;48.288;8.726;2022-08-18T01:31:28;7.43;;;7.03;;
2225;SDS011;1119;48.288;8.726;2022-08-18T01:34:09;9.33;;;8.63;;
2225;SDS011;1119;48.288;8.726;2022-08-18T01:36:37;8.13;;;7.63;;
2225;SDS011;1119;48.288;8.726;2022-08-18T01:39:08;9.07;;;8.47;;
2225;SDS011;1119;48.288;8.726;2022-08-18T01:41:38;8.90;;;8.20;;
2225;SDS011;1119;48.288;8.726;2022-08-18T01:44:06;8.27;;;7.77;;
2225;SDS011;1119;48.288;8.726;2022-08-18T01:46:35;8.70;;;8.10;;
2225;SDS011;1119;48.288;8.726;2022-08-18T01:49:05;8.77;;;8.17;;
2225;SDS011;1119;48.288;8.726;2022-08-18T01:51:33;9.03;;;8.53;;
2225;SDS011;1119;48.288;8.726;2022-08-18T01:54:05;9.00;;;8.20;;
2225;SDS011;1119;48.288;8.726;2022-08-18T01:56:36;8.33;;;7.73;;
2225;SDS011;1119;48.288;8.726;2022-08-18T01:59:04;7.87;;;7.33;;
2225;SDS011;1119;48.288;8.726;2022-08-18T02:01:37;9.00;;;8.40;;
2225;SDS011;1119;48.288;8.726;2022-08-18T02:04:06;9.13;;;8.30;;
2225;SDS011;1119;48.288;8.726;2022-08-18T02:06:36;9.43;;;8.73;;
2225;SDS011;1119;48.288;8.726;2022-08-18T02:09:04;9.70;;;8.87;;
2225;SDS011;1119;48.288;8.726;2022-08-18T02:11:33;8.60;;;8.10;;
2225;SDS011;1119;48.288;8.726;2022-08-18T02:14:00;9.37;;;8.67;;
2225;SDS011;1119;48.288;8.726;2022-08-18T02:16:27;9.10;;;8.50;;
2225;SDS011;1119;48.288;8.726;2022-08-18T02:18:55;9.17;;;8.50;;
2225;SDS011;1119;48.288;8.726;2022-08-18T02:21:22;9.10;;;8.40;;
2225;SDS011;1119;48.288;8.726;2022-08-18T02:23:49;10.20;;;9.50;;
2225;SDS011;1119;48.288;8.726;2022-08-18T02:26:16;9.57;;;8.80;;
2225;SDS011;1119;48.288;8.726;2022-08-18T02:28:45;9.37;;;8.67;;
2225;SDS011;1119;48.288;8.726;2022-08-18T02:31:13;8.00;;;7.40;;
2225;SDS011;1119;48.288;8.726;2022-08-18T02:33:42;8.77;;;8.23;;
2225;SDS011;1119;48.288;8.726;2022-08-18T02:36:10;10.23;;;9.43;;
2225;SDS011;1119;48.288;8.726;2022-08-18T02:38:38;10.23;;;9.40;;
2225;SDS011;1119;48.288;8.726;2022-08-18T02:41:09;9.47;;;8.70;;
2225;SDS011;1119;48.288;8.726;2022-08-18T02:43:40;10.83;;;9.80;;
2225;SDS011;1119;48.288;8.726;2022-08-18T02:46:09;9.80;;;9.20;;
2225;SDS011;1119;48.288;8.726;2022-08-18T02:48:36;11.33;;;10.23;;
2225;SDS011;1119;48.288;8.726;2022-08-18T02:51:04;10.03;;;9.20;;
2225;SDS011;1119;48.288;8.726;2022-08-18T02:53:36;9.60;;;8.80;;
2225;SDS011;1119;48.288;8.726;2022-08-18T02:56:06;10.10;;;9.20;;
2225;SDS011;1119;48.288;8.726;2022-08-18T02:58:48;9.93;;;9.23;;
2225;SDS011;1119;48.288;8.726;2022-08-18T03:01:20;10.40;;;9.50;;
2225;SDS011;1119;48.288;8.726;2022-08-18T03:03:48;9.47;;;8.67;;
2225;SDS011;1119;48.288;8.726;2022-08-18T03:06:15;10.53;;;9.83;;
2225;SDS011;1119;48.288;8.726;2022-08-18T03:08:44;9.00;;;8.40;;
2225;SDS011;1119;48.288;8.726;2022-08-18T03:11:13;10.93;;;10.13;;
2225;SDS011;1119;48.288;8.726;2022-08-18T03:13:41;11.07;;;9.10;;
2225;SDS011;1119;48.288;8.726;2022-08-18T03:16:08;9.40;;;8.70;;
2225;SDS011;1119;48.288;8.726;2022-08-18T03:18:37;10.50;;;9.80;;
2225;SDS011;1119;48.288;8.726;2022-08-18T03:21:06;11.13;;;10.07;;
2225;SDS011;1119;48.288;8.726;2022-08-18T03:23:35;10.70;;;9.80;;
2225;SDS011;1119;48.288;8.726;2022-08-18T03:26:04;9.70;;;9.00;;
2225;SDS011;1119;48.288;8.726;2022-08-18T03:28:33;9.80;;;9.10;;
2225;SDS011;1119;48.288;8.726;2022-08-18T03:31:00;10.27;;;9.47;;
2225;SDS011;1119;48.288;8.726;2022-08-18T03:33:27;9.40;;;8.80;;
2225;SDS011;1119;48.288;8.726;2022-08-18T03:36:01;9.60;;;8.90;;
2225;SDS011;1119;48.288;8.726;2022-08-18T03:38:30;10.03;;;9.13;;
2225;SDS011;1119;48.288;8.726;2022-08-18T03:40:57;10.50;;;9.70;;
2225;SDS011;1119;48.288;8.726;2022-08-18T03:43:24;9.10;;;8.57;;
2225;SDS011;1119;48.288;8.726;2022-08-18T03:45:51;10.27;;;9.57;;
2225;SDS011;1119;48.288;8.726;2022-08-18T03:48:19;9.80;;;9.03;;
2225;SDS011;1119;48.288;8.726;2022-08-18T03:50:46;9.30;;;8.60;;
2225;SDS011;1119;48.288;8.726;2022-08-18T03:53:15;9.07;;;8.47;;
2225;SDS011;1119;48.288;8.726;2022-08-18T03:55:42;9.53;;;8.93;;
2225;SDS011;1119;48.288;8.726;2022-08-18T03:58:09;8.40;;;7.70;;
2225;SDS011;1119;48.288;8.726;2022-08-18T04:00:39;9.77;;;9.03;;
2225;SDS011;1119;48.288;8.726;2022-08-18T04:03:06;8.83;;;8.30;;
2225;SDS011;1119;48.288;8.726;2022-08-18T04:05:37;10.67;;;9.97;;
2225;SDS011;1119;48.288;8.726;2022-08-18T04:08:05;10.13;;;9.43;;
2225;SDS011;1119;48.288;8.726;2022-08-18T04:10:34;11.13;;;10.23;;
2225;SDS011;1119;48.288;8.726;2022-08-18T04:13:01;11.83;;;11.03;;
2225;SDS011;1119;48.288;8.726;2022-08-18T04:15:30;10.80;;;9.80;;
2225;SDS011;1119;48.288;8.726;2022-08-18T04:17:58;11.70;;;10.80;;
2225;SDS011;1119;48.288;8.726;2022-08-18T04:20:28;10.77;;;9.67;;
2225;SDS011;1119;48.288;8.726;2022-08-18T04:22:56;11.53;;;10.50;;
2225;SDS011;1119;48.288;8.726;2022-08-18T04:25:23;12.00;;;11.00;;
2225;SDS011;1119;48.288;8.726;2022-08-18T04:27:52;10.90;;;10.10;;
2225;SDS011;1119;48.288;8.726;2022-08-18T04:30:22;10.90;;;10.10;;
2225;SDS011;1119;48.288;8.726;2022-08-18T04:32:49;12.83;;;11.30;;
2225;SDS011;1119;48.288;8.726;2022-08-18T04:35:16;9.73;;;9.13;;
2225;SDS011;1119;48.288;8.726;2022-08-18T04:37:43;11.63;;;10.80;;
2225;SDS011;1119;48.288;8.726;2022-08-18T04:40:11;11.50;;;10.60;;
2225;SDS011;1119;48.288;8.726;2022-08-18T04:42:38;11.50;;;10.60;;
2225;SDS011;1119;48.288;8.726;2022-08-18T04:45:07;11.00;;;10.20;;
2225;SDS011;1119;48.288;8.726;2022-08-18T04:47:37;11.40;;;10.30;;
2225;SDS011;1119;48.288;8.726;2022-08-18T04:50:06;10.10;;;9.23;;
2225;SDS011;1119;48.288;8.726;2022-08-18T04:52:34;10.80;;;9.90;;
2225;SDS011;1119;48.288;8.726;2022-08-18T04:55:19;11.03;;;10.27;;
2225;SDS011;1119;48.288;8.726;2022-08-18T04:57:46;10.60;;;9.77;;
2225;SDS011;1119;48.288;8.726;2022-08-18T05:00:15;10.63;;;9.63;;
2225;SDS011;1119;48.288;8.726;2022-08-18T05:02:43;11.40;;;10.50;;
2225;SDS011;1119;48.288;8.726;2022-08-18T05:05:10;11.60;;;10.60;;
2225;SDS011;1119;48.288;8.726;2022-08-18T05:07:42;13.13;;;12.03;;
2225;SDS011;1119;48.288;8.726;2022-08-18T05:10:11;10.30;;;9.50;;
2225;SDS011;1119;48.288;8.726;2022-08-18T05:12:41;9.87;;;9.20;;
2225;SDS011;1119;48.288;8.726;2022-08-18T05:15:12;10.97;;;10.17;;
2225;SDS011;1119;48.288;8.726;2022-08-18T05:17:41;12.60;;;10.40;;
2225;SDS011;1119;48.288;8.726;2022-08-18T05:20:09;10.37;;;9.67;;
2225;SDS011;1119;48.288;8.726;2022-08-18T05:22:37;9.70;;;8.93;;
2225;SDS011;1119;48.288;8.726;2022-08-18T05:25:06;11.70;;;10.60;;
2225;SDS011;1119;48.288;8.726;2022-08-18T05:27:35;11.10;;;10.00;;
2225;SDS011;1119;48.288;8.726;2022-08-18T05:30:07;10.57;;;9.77;;
2225;SDS011;1119;48.288;8.726;2022-08-18T05:32:39;11.87;;;10.87;;
2225;SDS011;1119;48.288;8.726;2022-08-18T05:35:09;11.67;;;10.87;;
2225;SDS011;1119;48.288;8.726;2022-08-18T05:37:41;12.03;;;11.03;;
2225;SDS011;1119;48.288;8.726;2022-08-18T05:40:25;11.23;;;10.43;;
2225;SDS011;1119;48.288;8.726;2022-08-18T05:42:52;11.20;;;10.30;;
2225;SDS011;1119;48.288;8.726;2022-08-18T05:45:22;11.90;;;11.00;;
2225;SDS011;1119;48.288;8.726;2022-08-18T05:47:51;10.83;;;10.00;;
2225;SDS011;1119;48.288;8.726;2022-08-18T05:50:24;11.43;;;10.63;;
2225;SDS011;1119;48.288;8.726;2022-08-18T05:52:53;10.50;;;9.70;;
2225;SDS011;1119;48.288;8.726;2022-08-18T05:55:26;12.13;;;11.20;;
2225;SDS011;1119;48.288;8.726;2022-08-18T05:58:16;12.10;;;11.20;;
2225;SDS011;1119;48.288;8.726;2022-08-18T06:00:49;12.17;;;11.17;;
2225;SDS011;1119;48.288;8.726;2022-08-18T06:03:23;12.60;;;11.70;;
2225;SDS011;1119;48.288;8.726;2022-08-18T06:05:57;11.13;;;10.30;;
2225;SDS011;1119;48.288;8.726;2022-08-18T06:08:28;11.90;;;11.00;;
2225;SDS011;1119;48.288;8.726;2022-08-18T06:11:11;13.23;;;12.20;;
2225;SDS011;1119;48.288;8.726;2022-08-18T06:13:38;13.00;;;11.80;;
2225;SDS011;1119;48.288;8.726;2022-08-18T06:16:09;11.60;;;10.60;;
2225;SDS011;1119;48.288;8.726;2022-08-18T06:18:45;11.30;;;10.37;;
2225;SDS011;1119;48.288;8.726;2022-08-18T06:21:29;11.23;;;10.37;;
2225;SDS011;1119;48.288;8.726;2022-08-18T06:24:06;10.07;;;9.03;;
2225;SDS011;1119;48.288;8.726;2022-08-18T06:26:44;11.90;;;10.90;;
2225;SDS011;1119;48.288;8.726;2022-08-18T06:29:26;13.07;;;11.87;;
2225;SDS011;1119;48.288;8.726;2022-08-18T06:32:09;11.87;;;10.67;;
2225;SDS011;1119;48.288;8.726;2022-08-18T06:34:50;10.53;;;9.53;;
2225;SDS011;1119;48.288;8.726;2022-08-18T06:37:34;12.30;;;11.30;;
2225;SDS011;1119;48.288;8.726;2022-08-18T06:40:22;11.80;;;10.90;;
2225;SDS011;1119;48.288;8.726;2022-08-18T06:42:49;11.77;;;10.77;;
2225;SDS011;1119;48.288;8.726;2022-08-18T06:45:16;11.60;;;10.70;;
2225;SDS011;1119;48.288;8.726;2022-08-18T06:47:48;12.13;;;11.13;;
2225;SDS011;1119;48.288;8.726;2022-08-18T06:50:25;11.90;;;11.10;;
2225;SDS011;1119;48.288;8.726;2022-08-18T06:52:59;12.27;;;11.17;;
2225;SDS011;1119;48.288;8.726;2022-08-18T06:55:31;11.40;;;10.50;;
2225;SDS011;1119;48.288;8.726;2022-08-18T06:58:01;12.47;;;11.37;;
2225;SDS011;1119;48.288;8.726;2022-08-18T07:00:32;12.53;;;11.53;;
2225;SDS011;1119;48.288;8.726;2022-08-18T07:03:03;11.83;;;10.93;;
2225;SDS011;1119;48.288;8.726;2022-08-18T07:05:58;9.97;;;9.37;;
2225;SDS011;1119;48.288;8.726;2022-08-18T07:08:29;11.50;;;10.50;;
2225;SDS011;1119;48.288;8.726;2022-08-18T07:11:09;11.10;;;10.30;;
2225;SDS011;1119;48.288;8.726;2022-08-18T07:13:40;12.53;;;11.63;;
2225;SDS011;1119;48.288;8.726;2022-08-18T07:16:16;11.50;;;10.57;;
2225;SDS011;1119;48.288;8.726;2022-08-18T07:18:48;11.10;;;10.30;;
2225;SDS011;1119;48.288;8.726;2022-08-18T07:21:25;10.60;;;9.70;;
2225;SDS011;1119;48.288;8.726;2022-08-18T07:23:57;10.10;;;9.30;;
2225;SDS011;1119;48.288;8.726;2022-08-18T07:26:28;11.47;;;10.23;;
2225;SDS011;1119;48.288;8.726;2022-08-18T07:28:55;10.60;;;9.80;;
2225;SDS011;1119;48.288;8.726;2022-08-18T07:31:40;11.00;;;10.17;;
2225;SDS011;1119;48.288;8.726;2022-08-18T07:34:14;10.80;;;9.90;;
2225;SDS011;1119;48.288;8.726;2022-08-18T07:36:49;10.33;;;9.53;;
2225;SDS011;1119;48.288;8.726;2022-08-18T07:39:21;11.67;;;10.77;;
2225;SDS011;1119;48.288;8.726;2022-08-18T07:41:54;11.03;;;10.23;;
2225;SDS011;1119;48.288;8.726;2022-08-18T07:44:28;11.00;;;10.20;;
2225;SDS011;1119;48.288;8.726;2022-08-18T07:47:19;10.23;;;9.43;;
2225;SDS011;1119;48.288;8.726;2022-08-18T07:49:50;10.83;;;10.03;;
2225;SDS011;1119;48.288;8.726;2022-08-18T07:52:25;11.47;;;10.53;;
2225;SDS011;1119;48.288;8.726;2022-08-18T07:54:58;11.10;;;10.20;;
2225;SDS011;1119;48.288;8.726;2022-08-18T07:57:36;10.10;;;9.20;;
2225;SDS011;1119;48.288;8.726;2022-08-18T08:00:13;9.80;;;9.20;;
2225;SDS011;1119;48.288;8.726;2022-08-18T08:02:54;10.43;;;9.73;;
2225;SDS011;1119;48.288;8.726;2022-08-18T08:05:35;10.50;;;9.60;;
2225;SDS011;1119;48.288;8.726;2022-08-18T08:08:12;9.27;;;8.57;;
2225;SDS011;1119;48.288;8.726;2022-08-18T08:10:48;9.80;;;9.10;;
2225;SDS011;1119;48.288;8.726;2022-08-18T08:13:33;10.97;;;9.97;;
2225;SDS011;1119;48.288;8.726;2022-08-18T08:16:15;9.90;;;9.20;;
2225;SDS011;1119;48.288;8.726;2022-08-18T08:18:56;9.40;;;8.63;;
2225;SDS011;1119;48.288;8.726;2022-08-18T08:21:36;9.30;;;8.50;;
2225;SDS011;1119;48.288;8.726;2022-08-18T08:24:12;10.07;;;9.37;;
2225;SDS011;1119;48.288;8.726;2022-08-18T08:26:48;8.53;;;7.90;;
2225;SDS011;1119;48.288;8.726;2022-08-18T08:29:25;9.03;;;8.43;;
2225;SDS011;1119;48.288;8.726;2022-08-18T08:32:03;8.70;;;8.10;;
2225;SDS011;1119;48.288;8.726;2022-08-18T08:34:34;9.50;;;8.80;;
2225;SDS011;1119;48.288;8.726;2022-08-18T08:37:11;9.10;;;8.50;;
2225;SDS011;1119;48.288;8.726;2022-08-18T08:39:45;8.60;;;8.00;;
2225;SDS011;1119;48.288;8.726;2022-08-18T08:42:22;8.00;;;7.40;;
2225;SDS011;1119;48.288;8.726;2022-08-18T08:45:05;8.33;;;7.73;;
2225;SDS011;1119;48.288;8.726;2022-08-18T08:47:40;9.00;;;8.40;;
2225;SDS011;1119;48.288;8.726;2022-08-18T08:50:13;9.00;;;8.50;;
2225;SDS011;1119;48.288;8.726;2022-08-18T08:52:46;9.03;;;8.23;;
2225;SDS011;1119;48.288;8.726;2022-08-18T08:55:22;9.00;;;8.43;;
2225;SDS011;1119;48.288;8.726;2022-08-18T08:57:53;8.07;;;7.63;;
2225;SDS011;1119;48.288;8.726;2022-08-18T09:00:28;8.73;;;8.23;;
2225;SDS011;1119;48.288;8.726;2022-08-18T09:03:05;8.10;;;7.60;;
2225;SDS011;1119;48.288;8.726;2022-08-18T09:05:48;8.60;;;8.00;;
2225;SDS011;1119;48.288;8.726;2022-08-18T09:08:25;9.13;;;8.40;;
2225;SDS011;1119;48.288;8.726;2022-08-18T09:11:30;8.43;;;7.93;;
2225;SDS011;1119;48.288;8.726;2022-08-18T09:14:35;8.70;;;8.10;;
2225;SDS011;1119;48.288;8.726;2022-08-18T09:17:51;9.00;;;8.20;;
2225;SDS011;1119;48.288;8.726;2022-08-18T09:20:49;9.27;;;8.70;;
2225;SDS011;1119;48.288;8.726;2022-08-18T09:23:32;10.23;;;9.37;;
2225;SDS011;1119;48.288;8.726;2022-08-18T09:26:22;9.10;;;8.50;;
2225;SDS011;1119;48.288;8.726;2022-08-18T09:29:12;9.57;;;8.97;;
2225;SDS011;1119;48.288;8.726;2022-08-18T09:31:48;8.63;;;8.00;;
2225;SDS011;1119;48.288;8.726;2022-08-18T09:35:15;8.20;;;7.70;;
2225;SDS011;1119;48.288;8.726;2022-08-18T09:37:57;10.20;;;9.50;;
2225;SDS011;1119;48.288;8.726;2022-08-18T09:40:51;7.73;;;7.23;;
2225;SDS011;1119;48.288;8.726;2022-08-18T09:43:51;9.27;;;8.67;;
2225;SDS011;1119;48.288;8.726;2022-08-18T09:46:51;9.00;;;8.23;;
2225;SDS011;1119;48.288;8.726;2022-08-18T09:49:41;9.97;;;9.30;;
2225;SDS011;1119;48.288;8.726;2022-08-18T10:01:20;9.77;;;9.07;;
2225;SDS011;1119;48.288;8.726;2022-08-18T10:07:13;8.67;;;8.17;;
2225;SDS011;1119;48.288;8.726;2022-08-18T10:09:50;9.07;;;8.47;;
2225;SDS011;1119;48.288;8.726;2022-08-18T10:12:40;9.33;;;8.63;;
2225;SDS011;1119;48.288;8.726;2022-08-18T10:15:39;8.90;;;8.30;;
2225;SDS011;1119;48.288;8.726;2022-08-18T10:18:28;8.93;;;8.33;;
2225;SDS011;1119;48.288;8.726;2022-08-18T10:21:22;9.20;;;8.57;;
2225;SDS011;1119;48.288;8.726;2022-08-18T10:23:54;9.10;;;8.40;;
2225;SDS011;1119;48.288;8.726;2022-08-18T10:29:44;8.97;;;8.47;;
2225;SDS011;1119;48.288;8.726;2022-08-18T10:38:28;9.07;;;8.37;;
2225;SDS011;1119;48.288;8.726;2022-08-18T10:41:18;8.27;;;7.77;;
2225;SDS011;1119;48.288;8.726;2022-08-18T10:43:50;9.50;;;8.90;;
2225;SDS011;1119;48.288;8.726;2022-08-18T10:46:20;9.30;;;8.60;;
2225;SDS011;1119;48.288;8.726;2022-08-18T10:48:57;9.10;;;8.50;;
2225;SDS011;1119;48.288;8.726;2022-08-18T10:51:42;9.17;;;8.57;;
2225;SDS011;1119;48.288;8.726;2022-08-18T10:55:03;8.83;;;8.10;;
2225;SDS011;1119;48.288;8.726;2022-08-18T10:57:58;11.80;;;10.77;;
2225;SDS011;1119;48.288;8.726;2022-08-18T11:00:45;8.87;;;8.27;;
2225;SDS011;1119;48.288;8.726;2022-08-18T11:03:29;9.40;;;8.80;;
2225;SDS011;1119;48.288;8.726;2022-08-18T11:06:15;9.80;;;9.10;;
2225;SDS011;1119;48.288;8.726;2022-08-18T11:08:48;9.20;;;8.60;;
2225;SDS011;1119;48.288;8.726;2022-08-18T11:11:20;9.93;;;9.27;;
2225;SDS011;1119;48.288;8.726;2022-08-18T11:13:53;9.00;;;8.40;;
2225;SDS011;1119;48.288;8.726;2022-08-18T11:16:33;8.40;;;7.70;;
2225;SDS011;1119;48.288;8.726;2022-08-18T11:19:13;8.87;;;8.27;;
2225;SDS011;1119;48.288;8.726;2022-08-18T11:21:42;9.17;;;8.57;;
2225;SDS011;1119;48.288;8.726;2022-08-18T11:24:12;10.10;;;9.20;;
2225;SDS011;1119;48.288;8.726;2022-08-18T11:26:45;10.30;;;9.40;;
2225;SDS011;1119;48.288;8.726;2022-08-18T11:29:16;10.57;;;9.87;;
2225;SDS011;1119;48.288;8.726;2022-08-18T11:31:47;9.87;;;9.27;;
2225;SDS011;1119;48.288;8.726;2022-08-18T11:34:18;9.67;;;8.97;;
2225;SDS011;1119;48.288;8.726;2022-08-18T11:36:54;8.87;;;8.23;;
2225;SDS011;1119;48.288;8.726;2022-08-18T11:39:23;8.10;;;7.60;;
2225;SDS011;1119;48.288;8.726;2022-08-18T11:41:52;8.50;;;7.90;;
2225;SDS011;1119;48.288;8.726;2022-08-18T11:44:21;8.43;;;7.93;;
2225;SDS011;1119;48.288;8.726;2022-08-18T11:46:55;8.87;;;8.17;;
2225;SDS011;1119;48.288;8.726;2022-08-18T11:49:44;8.53;;;7.93;;
2225;SDS011;1119;48.288;8.726;2022-08-18T11:52:22;8.23;;;7.73;;
2225;SDS011;1119;48.288;8.726;2022-08-18T11:54:57;8.80;;;8.30;;
2225;SDS011;1119;48.288;8.726;2022-08-18T11:57:39;8.60;;;8.00;;
2225;SDS011;1119;48.288;8.726;2022-08-18T12:03:22;8.27;;;7.77;;
2225;SDS011;1119;48.288;8.726;2022-08-18T12:05:56;7.80;;;7.20;;
2225;SDS011;1119;48.288;8.726;2022-08-18T12:08:35;7.40;;;6.90;;
2225;SDS011;1119;48.288;8.726;2022-08-18T12:11:15;8.93;;;8.23;;
2225;SDS011;1119;48.288;8.726;2022-08-18T12:13:48;8.10;;;7.50;;
2225;SDS011;1119;48.288;8.726;2022-08-18T12:16:33;8.97;;;8.20;;
2225;SDS011;1119;48.288;8.726;2022-08-18T12:19:04;9.23;;;8.53;;
2225;SDS011;1119;48.288;8.726;2022-08-18T12:21:38;8.50;;;8.00;;
2225;SDS011;1119;48.288;8.726;2022-08-18T12:24:09;8.60;;;7.90;;
2225;SDS011;1119;48.288;8.726;2022-08-18T12:26:45;8.47;;;7.90;;
2225;SDS011;1119;48.288;8.726;2022-08-18T12:29:14;8.87;;;8.27;;
2225;SDS011;1119;48.288;8.726;2022-08-18T12:31:42;10.37;;;9.57;;
2225;SDS011;1119;48.288;8.726;2022-08-18T12:34:09;8.30;;;7.80;;
2225;SDS011;1119;48.288;8.726;2022-08-18T12:36:37;8.43;;;7.90;;
2225;SDS011;1119;48.288;8.726;2022-08-18T12:39:04;8.40;;;7.80;;
2225;SDS011;1119;48.288;8.726;2022-08-18T12:41:31;8.13;;;7.63;;
2225;SDS011;1119;48.288;8.726;2022-08-18T12:43:58;7.83;;;7.33;;
2225;SDS011;1119;48.288;8.726;2022-08-18T12:46:27;9.90;;;8.90;;
2225;SDS011;1119;48.288;8.726;2022-08-18T12:48:56;8.83;;;7.90;;
2225;SDS011;1119;48.288;8.726;2022-08-18T12:51:23;9.70;;;8.83;;
2225;SDS011;1119;48.288;8.726;2022-08-18T12:53:50;8.83;;;8.27;;
2225;SDS011;1119;48.288;8.726;2022-08-18T12:56:19;10.20;;;9.53;;
2225;SDS011;1119;48.288;8.726;2022-08-18T12:58:49;9.10;;;8.60;;
2225;SDS011;1119;48.288;8.726;2022-08-18T13:01:16;12.83;;;11.70;;
2225;SDS011;1119;48.288;8.726;2022-08-18T13:03:45;11.53;;;10.10;;
2225;SDS011;1119;48.288;8.726;2022-08-18T13:06:13;9.60;;;8.90;;
2225;SDS011;1119;48.288;8.726;2022-08-18T13:08:41;10.73;;;9.83;;
2225;SDS011;1119;48.288;8.726;2022-08-18T13:11:08;13.70;;;12.60;;
2225;SDS011;1119;48.288;8.726;2022-08-18T13:13:35;13.23;;;12.17;;
2225;SDS011;1119;48.288;8.726;2022-08-18T13:16:04;12.90;;;11.90;;
2225;SDS011;1119;48.288;8.726;2022-08-18T13:18:33;11.63;;;10.83;;
2225;SDS011;1119;48.288;8.726;2022-08-18T13:21:03;13.00;;;11.80;;
2225;SDS011;1119;48.288;8.726;2022-08-18T13:23:31;11.27;;;10.53;;
2225;SDS011;1119;48.288;8.726;2022-08-18T13:25:58;12.73;;;11.77;;
2225;SDS011;1119;48.288;8.726;2022-08-18T13:28:27;11.70;;;10.90;;
2225;SDS011;1119;48.288;8.726;2022-08-18T13:30:56;12.40;;;11.40;;
2225;SDS011;1119;48.288;8.726;2022-08-18T13:33:23;11.90;;;11.10;;
2225;SDS011;1119;48.288;8.726;2022-08-18T13:35:51;11.13;;;10.43;;
2225;SDS011;1119;48.288;8.726;2022-08-18T13:38:20;13.27;;;12.07;;
2225;SDS011;1119;48.288;8.726;2022-08-18T13:40:49;12.50;;;11.53;;
2225;SDS011;1119;48.288;8.726;2022-08-18T13:43:18;13.20;;;12.30;;
2225;SDS011;1119;48.288;8.726;2022-08-18T13:45:50;12.33;;;11.50;;
2225;SDS011;1119;48.288;8.726;2022-08-18T13:48:17;12.10;;;11.30;;
2225;SDS011;1119;48.288;8.726;2022-08-18T13:50:44;11.83;;;10.60;;
2225;SDS011;1119;48.288;8.726;2022-08-18T13:53:11;12.33;;;11.43;;
2225;SDS011;1119;48.288;8.726;2022-08-18T13:55:44;13.27;;;12.17;;
2225;SDS011;1119;48.288;8.726;2022-08-18T13:58:12;12.07;;;11.17;;
2225;SDS011;1119;48.288;8.726;2022-08-18T14:00:40;13.00;;;12.00;;
2225;SDS011;1119;48.288;8.726;2022-08-18T14:03:07;12.87;;;11.90;;
2225;SDS011;1119;48.288;8.726;2022-08-18T14:05:35;13.00;;;11.93;;
2225;SDS011;1119;48.288;8.726;2022-08-18T14:08:02;13.93;;;12.70;;
2225;SDS011;1119;48.288;8.726;2022-08-18T14:10:30;12.50;;;11.67;;
2225;SDS011;1119;48.288;8.726;2022-08-18T14:12:59;13.63;;;12.63;;
2225;SDS011;1119;48.288;8.726;2022-08-18T14:15:27;12.60;;;11.60;;
2225;SDS011;1119;48.288;8.726;2022-08-18T14:17:55;13.47;;;12.10;;
2225;SDS011;1119;48.288;8.726;2022-08-18T14:20:23;13.90;;;12.90;;
2225;SDS011;1119;48.288;8.726;2022-08-18T14:23:08;11.47;;;10.57;;
2225;SDS011;1119;48.288;8.726;2022-08-18T14:25:52;12.83;;;11.93;;
2225;SDS011;1119;48.288;8.726;2022-08-18T14:28:38;11.43;;;10.63;;
2225;SDS011;1119;48.288;8.726;2022-08-18T14:31:05;12.03;;;11.23;;
2225;SDS011;1119;48.288;8.726;2022-08-18T14:33:33;12.17;;;11.17;;
2225;SDS011;1119;48.288;8.726;2022-08-18T14:36:01;13.33;;;12.33;;
2225;SDS011;1119;48.288;8.726;2022-08-18T14:38:30;12.87;;;11.70;;
2225;SDS011;1119;48.288;8.726;2022-08-18T14:40:57;11.70;;;10.90;;
2225;SDS011;1119;48.288;8.726;2022-08-18T14:43:28;13.53;;;12.63;;
2225;SDS011;1119;48.288;8.726;2022-08-18T14:45:56;13.27;;;12.37;;
2225;SDS011;1119;48.288;8.726;2022-08-18T14:48:23;12.40;;;11.40;;
2225;SDS011;1119;48.288;8.726;2022-08-18T14:50:52;13.60;;;12.27;;
2225;SDS011;1119;48.288;8.726;2022-08-18T14:53:23;13.10;;;12.30;;
2225;SDS011;1119;48.288;8.726;2022-08-18T14:55:54;13.47;;;12.20;;
2225;SDS011;1119;48.288;8.726;2022-08-18T14:58:24;11.20;;;10.50;;
2225;SDS011;1119;48.288;8.726;2022-08-18T15:00:53;13.03;;;11.93;;
2225;SDS011;1119;48.288;8.726;2022-08-18T15:03:24;13.33;;;12.40;;
2225;SDS011;1119;48.288;8.726;2022-08-18T15:05:56;13.30;;;12.30;;
2225;SDS011;1119;48.288;8.726;2022-08-18T15:08:24;12.50;;;11.70;;
2225;SDS011;1119;48.288;8.726;2022-08-18T15:10:51;12.23;;;11.43;;
2225;SDS011;1119;48.288;8.726;2022-08-18T15:13:19;12.93;;;11.90;;
2225;SDS011;1119;48.288;8.726;2022-08-18T15:15:46;13.27;;;12.27;;
2225;SDS011;1119;48.288;8.726;2022-08-18T15:18:14;14.23;;;13.13;;
2225;SDS011;1119;48.288;8.726;2022-08-18T15:20:42;12.27;;;11.30;;
2225;SDS011;1119;48.288;8.726;2022-08-18T15:23:27;12.80;;;11.50;;
2225;SDS011;1119;48.288;8.726;2022-08-18T15:26:12;11.90;;;11.10;;
2225;SDS011;1119;48.288;8.726;2022-08-18T15:28:46;11.73;;;11.03;;
2225;SDS011;1119;48.288;8.726;2022-08-18T15:31:13;12.60;;;11.70;;
2225;SDS011;1119;48.288;8.726;2022-08-18T15:33:41;12.10;;;11.40;;
2225;SDS011;1119;48.288;8.726;2022-08-18T15:36:09;13.47;;;12.27;;
2225;SDS011;1119;48.288;8.726;2022-08-18T15:38:36;12.63;;;11.50;;
2225;SDS011;1119;48.288;8.726;2022-08-18T15:41:04;11.43;;;10.73;;
2225;SDS011;1119;48.288;8.726;2022-08-18T15:43:31;11.30;;;10.50;;
2225;SDS011;1119;48.288;8.726;2022-08-18T15:45:58;11.60;;;10.87;;
2225;SDS011;1119;48.288;8.726;2022-08-18T15:48:26;11.27;;;10.40;;
2225;SDS011;1119;48.288;8.726;2022-08-18T15:50:55;10.97;;;10.27;;
2225;SDS011;1119;48.288;8.726;2022-08-18T15:53:24;11.40;;;10.57;;
2225;SDS011;1119;48.288;8.726;2022-08-18T15:55:52;10.77;;;10.07;;
2225;SDS011;1119;48.288;8.726;2022-08-18T15:58:20;10.07;;;9.43;;
2225;SDS011;1119;48.288;8.726;2022-08-18T16:00:47;10.93;;;10.17;;
2225;SDS011;1119;48.288;8.726;2022-08-18T16:03:17;10.37;;;9.67;;